Time;durP1;ratioP1;P1;durP2;ratioP2;P2;SDS_P1;SDS_P2;PMS_P1;PMS_P2;Temp;Humidity;BMP_temperature;BMP_pressure;BME280_temperature;BME280_humidity;BME280_pressure;Samples;Min_cycle;Max_cycle;Signal;HPM_P1;HPM_P2
2022/06/22 00:01:05;;;;;;;14.10;8.93;;;;;;;17.30;100.00;92683.38;2105157;28;20119;-79
2022/06/22 00:02:16;;;;;;;11.52;8.75;;;;;;;17.31;100.00;92682.91;2098064;28;20028;-79
2022/06/22 00:03:19;;;;;;;11.27;9.18;;;;;;;17.27;100.00;92682.34;2083779;28;20037;-78
2022/06/22 00:04:28;;;;;;;12.82;9.05;;;;;;;17.29;100.00;92679.19;2090185;28;20063;-80
2022/06/22 00:05:43;;;;;;;10.77;9.05;;;;;;;17.33;100.00;92674.31;2099104;28;20108;-79
2022/06/22 00:07:11;;;;;;;12.80;8.70;;;;;;;17.39;100.00;92669.03;2096386;28;20606;-78
2022/06/22 00:08:37;;;;;;;13.40;8.88;;;;;;;17.38;100.00;92662.84;2106172;28;20034;-80
2022/06/22 00:09:41;;;;;;;10.63;9.27;;;;;;;17.27;100.00;92668.09;2106628;28;20475;-79
2022/06/22 00:11:11;;;;;;;10.20;9.18;;;;;;;17.29;100.00;92663.72;2106510;28;20535;-79
2022/06/22 00:12:32;;;;;;;10.18;8.38;;;;;;;17.29;100.00;92662.97;2104715;28;20035;-79
2022/06/22 00:13:36;;;;;;;9.85;8.68;;;;;;;17.27;100.00;92660.00;2097713;28;20492;-80
2022/06/22 00:14:58;;;;;;;;;;;;;;;17.23;100.00;92654.78;2104349;28;20020;-79
2022/06/22 00:16:04;;;;;;;10.48;8.82;;;;;;;17.15;100.00;92659.09;2106376;28;19907;-79
2022/06/22 00:17:05;;;;;;;11.82;9.57;;;;;;;17.18;100.00;92658.16;2099982;28;20534;-79
2022/06/22 00:18:27;;;;;;;11.85;8.73;;;;;;;17.19;100.00;92664.31;2106789;28;20028;-80
2022/06/22 00:19:49;;;;;;;11.50;9.63;;;;;;;17.16;100.00;92655.16;2111436;28;20024;-79
2022/06/22 00:21:17;;;;;;;12.85;8.52;;;;;;;17.13;100.00;92655.38;2116989;27;20034;-79
2022/06/22 00:22:25;;;;;;;12.95;9.15;;;;;;;17.03;100.00;92657.44;2094634;28;20539;-79
2022/06/22 00:23:36;;;;;;;12.65;9.43;;;;;;;17.02;100.00;92656.69;2091254;28;20021;-79
2022/06/22 00:25:00;;;;;;;10.10;9.10;;;;;;;16.98;100.00;92658.09;2104646;27;20464;-79
2022/06/22 00:26:23;;;;;;;10.48;9.38;;;;;;;17.09;100.00;92653.59;2112316;28;20038;-80
2022/06/22 00:27:42;;;;;;;10.27;9.10;;;;;;;17.18;100.00;92652.75;2098081;28;20028;-79
2022/06/22 00:29:04;;;;;;;12.05;9.13;;;;;;;17.28;100.00;92664.94;2092879;28;20016;-80
2022/06/22 00:30:31;;;;;;;11.88;8.68;;;;;;;17.33;100.00;92656.16;2106867;28;20380;-79
2022/06/22 00:31:53;;;;;;;13.18;9.45;;;;;;;17.34;100.00;92659.63;2113155;27;20046;-80
2022/06/22 00:33:23;;;;;;;13.65;8.68;;;;;;;17.38;100.00;92665.53;2106273;28;20675;-80
2022/06/22 00:34:45;;;;;;;12.18;8.98;;;;;;;17.38;100.00;92662.84;2104562;28;20426;-80
2022/06/22 00:36:18;;;;;;;13.10;8.50;;;;;;;17.33;100.00;92661.56;2106085;28;20032;-79
2022/06/22 00:37:31;;;;;;;13.05;8.77;;;;;;;17.29;100.00;92658.31;2100639;28;20118;-78
2022/06/22 00:38:51;;;;;;;9.65;8.65;;;;;;;17.23;100.00;92660.19;2098276;28;20024;-79
2022/06/22 00:40:16;;;;;;;12.32;8.80;;;;;;;17.24;100.00;92652.81;2111829;28;20030;-79
2022/06/22 00:41:34;;;;;;;10.18;8.82;;;;;;;17.31;100.00;92655.88;2097776;28;20454;-79
2022/06/22 00:42:43;;;;;;;13.38;8.82;;;;;;;17.27;100.00;92652.63;2095221;28;20032;-80
2022/06/22 00:43:45;;;;;;;11.50;8.97;;;;;;;17.25;100.00;92648.91;2114255;28;20032;-79
2022/06/22 00:44:59;;;;;;;11.70;8.65;;;;;;;17.19;100.00;92637.28;2106441;28;20442;-79
2022/06/22 00:46:22;;;;;;;15.00;8.88;;;;;;;17.18;100.00;92638.50;2115351;27;20046;-79
2022/06/22 00:48:04;;;;;;;12.90;8.93;;;;;;;17.16;100.00;92633.56;2118653;27;20031;-79
2022/06/22 00:49:25;;;;;;;13.55;9.65;;;;;;;17.14;100.00;92636.00;2123399;27;20075;-79
2022/06/22 00:50:54;;;;;;;12.15;8.98;;;;;;;17.19;100.00;92638.03;2123000;27;20031;-79
2022/06/22 00:52:24;;;;;;;11.30;8.73;;;;;;;17.17;100.00;92643.16;2112681;28;20034;-80
2022/06/22 00:53:54;;;;;;;10.68;8.77;;;;;;;17.21;100.00;92645.66;2120736;28;21033;-79
2022/06/22 00:55:37;;;;;;;10.23;9.15;;;;;;;17.24;100.00;92647.44;2122896;27;20110;-79
2022/06/22 00:56:45;;;;;;;11.82;9.50;;;;;;;17.22;100.00;92647.16;2106189;28;20024;-79
2022/06/22 00:58:12;;;;;;;17.70;9.82;;;;;;;17.21;100.00;92642.94;2099610;28;20050;-79
2022/06/22 00:59:44;;;;;;;13.77;9.18;;;;;;;17.22;100.00;92652.56;2112491;28;20490;-80
2022/06/22 01:01:19;;;;;;;12.80;9.07;;;;;;;17.18;100.00;92641.22;2110588;28;20106;-80
2022/06/22 01:02:44;;;;;;;15.77;10.07;;;;;;;17.17;100.00;92645.13;2113229;28;20084;-79
2022/06/22 01:04:09;;;;;;;11.98;9.93;;;;;;;17.14;100.00;92640.66;2102858;28;20452;-79
2022/06/22 01:05:39;;;;;;;12.05;9.40;;;;;;;17.08;100.00;92648.69;2105933;28;20035;-79
2022/06/22 01:07:15;;;;;;;13.48;9.02;;;;;;;17.11;100.00;92653.13;2108330;28;20035;-79
2022/06/22 01:08:22;;;;;;;13.13;9.52;;;;;;;17.07;100.00;92647.19;2107752;28;20031;-79
2022/06/22 01:10:01;;;;;;;11.98;9.15;;;;;;;17.10;100.00;92651.66;2104475;28;20053;-80
2022/06/22 01:13:36;;;;;;;11.02;9.70;;;;;;;17.05;100.00;92649.63;2114733;28;20034;-79
2022/06/22 01:15:00;;;;;;;10.88;9.27;;;;;;;17.04;100.00;92640.78;2097499;28;20040;-80
2022/06/22 01:16:30;;;;;;;10.80;9.73;;;;;;;17.02;100.00;92645.13;2106147;28;20028;-80
2022/06/22 01:18:02;;;;;;;14.27;10.13;;;;;;;17.03;100.00;92636.59;2097567;28;20024;-79
2022/06/22 01:19:46;;;;;;;13.35;10.40;;;;;;;17.05;100.00;92634.16;2089112;28;20091;-80
2022/06/22 01:21:20;;;;;;;11.57;9.57;;;;;;;16.93;100.00;92635.19;2099578;28;20492;-79
2022/06/22 01:22:52;;;;;;;18.20;10.32;;;;;;;16.90;100.00;92638.06;2113427;28;20030;-81
2022/06/22 01:24:31;;;;;;;11.65;9.73;;;;;;;16.94;100.00;92635.94;2100671;28;20027;-79
2022/06/22 01:26:06;;;;;;;12.27;9.80;;;;;;;17.00;100.00;92634.81;2086542;28;20029;-78
2022/06/22 01:27:39;;;;;;;11.35;9.63;;;;;;;16.99;100.00;92627.94;2106802;28;20050;-79
2022/06/22 01:28:40;;;;;;;12.27;10.35;;;;;;;16.99;100.00;92637.97;2097432;28;20024;-79
2022/06/22 01:29:51;;;;;;;13.27;9.50;;;;;;;16.96;100.00;92628.88;2081087;28;20104;-79
2022/06/22 01:31:13;;;;;;;11.02;9.73;;;;;;;16.84;100.00;92638.75;2096866;28;20622;-79
2022/06/22 01:32:35;;;;;;;10.38;9.45;;;;;;;16.81;100.00;92631.59;2103151;28;20027;-80
2022/06/22 01:33:49;;;;;;;16.08;10.25;;;;;;;16.81;100.00;92641.63;2110372;28;20073;-79
2022/06/22 01:34:55;;;;;;;11.63;9.93;;;;;;;16.77;100.00;92646.47;2097669;28;20070;-79
2022/06/22 01:36:00;;;;;;;12.60;9.45;;;;;;;16.80;100.00;92645.53;2089380;28;20021;-79
2022/06/22 01:37:04;;;;;;;13.85;9.85;;;;;;;16.83;100.00;92642.66;2089499;28;20055;-80
2022/06/22 01:38:30;;;;;;;12.50;9.55;;;;;;;16.79;100.00;92644.78;2103612;28;20019;-79
2022/06/22 01:39:56;;;;;;;12.73;9.35;;;;;;;16.86;100.00;92644.44;2105744;28;20513;-79
2022/06/22 01:41:17;;;;;;;10.45;9.38;;;;;;;16.87;100.00;92642.47;2096895;28;20044;-79
2022/06/22 01:42:33;;;;;;;10.68;9.57;;;;;;;16.89;100.00;92644.69;2095164;28;20032;-80
2022/06/22 01:44:09;;;;;;;15.05;10.00;;;;;;;16.84;100.00;92646.09;2090327;28;20036;-80
2022/06/22 01:45:56;;;;;;;11.88;9.48;;;;;;;16.89;100.00;92639.28;2094164;28;20031;-80
2022/06/22 01:47:24;;;;;;;12.45;9.88;;;;;;;16.85;100.00;92634.09;2095828;28;20028;-81
2022/06/22 01:48:45;;;;;;;11.82;9.23;;;;;;;16.81;100.00;92641.63;2086184;28;20029;-80
2022/06/22 01:50:15;;;;;;;13.63;10.25;;;;;;;16.71;100.00;92640.22;2088925;28;20064;-80
2022/06/22 01:51:42;;;;;;;12.05;9.05;;;;;;;16.62;100.00;92639.09;2097106;28;20036;-80
2022/06/22 01:53:08;;;;;;;12.73;9.85;;;;;;;16.56;100.00;92638.28;2078422;28;20025;-80
2022/06/22 01:54:29;;;;;;;13.70;9.55;;;;;;;16.61;100.00;92645.72;2088767;28;20143;-80
2022/06/22 01:56:08;;;;;;;13.05;10.32;;;;;;;16.60;100.00;92638.81;2119838;27;20438;-80
2022/06/22 01:57:21;;;;;;;11.88;10.07;;;;;;;16.67;100.00;92648.50;2107311;28;20039;-80
2022/06/22 01:58:56;;;;;;;12.70;9.57;;;;;;;16.52;100.00;92650.47;2101510;28;20036;-80
2022/06/22 02:00:18;;;;;;;14.52;9.73;;;;;;;16.52;100.00;92650.47;2097228;28;20477;-80
2022/06/22 02:01:50;;;;;;;10.63;9.63;;;;;;;16.47;100.00;92651.84;2097127;28;20024;-80
2022/06/22 02:03:14;;;;;;;11.77;10.63;;;;;;;16.41;100.00;92645.59;2107035;28;20015;-80
2022/06/22 02:04:38;;;;;;;11.40;9.57;;;;;;;16.46;100.00;92652.28;2097083;28;20428;-79
2022/06/22 02:05:47;;;;;;;10.88;9.70;;;;;;;16.39;100.00;92658.06;2101473;28;20032;-79
2022/06/22 02:08:51;;;;;;;11.38;10.23;;;;;;;16.25;100.00;92654.16;2097989;28;20437;-81
2022/06/22 02:10:03;;;;;;;12.75;9.05;;;;;;;16.32;100.00;92656.47;2088955;28;20025;-79
2022/06/22 02:11:27;;;;;;;12.05;10.30;;;;;;;16.27;100.00;92655.16;2096650;28;20142;-80
2022/06/22 02:13:28;;;;;;;10.93;9.50;;;;;;;16.21;100.00;92656.28;2097638;28;20025;-80
2022/06/22 02:14:52;;;;;;;10.85;9.73;;;;;;;16.16;100.00;92646.16;2105365;28;20047;-79
2022/06/22 02:16:26;;;;;;;14.30;9.75;;;;;;;16.15;100.00;92653.47;2112055;28;20028;-80
2022/06/22 02:17:32;;;;;;;12.50;9.98;;;;;;;16.24;100.00;92655.34;2097146;28;20029;-80
2022/06/22 02:18:57;;;;;;;10.63;9.57;;;;;;;16.17;100.00;92655.72;2092571;28;20104;-80
2022/06/22 02:20:18;;;;;;;12.68;10.38;;;;;;;16.26;100.00;92655.63;2101928;28;20029;-80
2022/06/22 02:21:53;;;;;;;12.80;10.35;;;;;;;16.23;100.00;92653.84;2111018;28;20515;-80
2022/06/22 02:23:04;;;;;;;10.77;9.60;;;;;;;16.29;100.00;92665.50;2098006;28;20111;-79
2022/06/22 02:24:41;;;;;;;11.07;9.98;;;;;;;16.32;100.00;92667.25;2105095;28;20024;-79
2022/06/22 02:26:08;;;;;;;10.75;9.68;;;;;;;16.32;100.00;92659.16;2103879;28;20028;-80
2022/06/22 02:27:09;;;;;;;13.68;10.60;;;;;;;16.32;100.00;92661.88;2096538;28;20032;-81
2022/06/22 02:28:10;;;;;;;12.98;10.65;;;;;;;16.25;100.00;92664.94;2097192;28;20031;-80
2022/06/22 02:29:13;;;;;;;12.30;11.00;;;;;;;16.20;100.00;92668.25;2105408;28;20114;-79
2022/06/22 02:30:14;;;;;;;11.75;10.55;;;;;;;16.22;100.00;92660.47;2089221;28;20060;-79
2022/06/22 02:31:18;;;;;;;14.45;10.15;;;;;;;16.20;100.00;92660.16;2080594;28;20068;-79
2022/06/22 02:32:27;;;;;;;20.50;10.65;;;;;;;16.22;100.00;92649.69;2093074;28;20082;-79
2022/06/22 02:33:51;;;;;;;11.80;10.35;;;;;;;16.20;100.00;92654.78;2100927;28;20110;-80
2022/06/22 02:35:13;;;;;;;12.20;10.30;;;;;;;16.16;100.00;92660.38;2091774;28;20043;-80
2022/06/22 02:36:40;;;;;;;12.25;10.48;;;;;;;16.24;100.00;92664.19;2094577;28;20037;-80
2022/06/22 02:37:55;;;;;;;12.05;10.75;;;;;;;16.23;100.00;92653.84;2098096;28;20028;-78
2022/06/22 02:39:18;;;;;;;15.52;10.85;;;;;;;16.13;100.00;92661.28;2107586;28;20030;-80
2022/06/22 02:45:41;;;;;;;;;;;;;;;16.08;100.00;92670.03;2103093;28;20048;-79
2022/06/22 02:47:33;;;;;;;11.75;10.43;;;;;;;16.14;100.00;92662.03;2096964;28;19918;-79
2022/06/22 02:48:47;;;;;;;13.63;10.77;;;;;;;16.16;100.00;92662.31;2088791;28;20729;-78
2022/06/22 02:50:12;;;;;;;12.93;9.80;;;;;;;16.08;100.00;92661.94;2093967;28;20028;-80
2022/06/22 02:51:36;;;;;;;14.10;9.73;;;;;;;16.07;100.00;92666.59;2102628;28;20054;-78
2022/06/22 02:53:00;;;;;;;13.15;10.23;;;;;;;16.12;100.00;92662.50;2100573;28;20058;-80
2022/06/22 02:54:33;;;;;;;13.60;10.73;;;;;;;16.14;100.00;92662.03;2097782;28;20042;-79
2022/06/22 02:55:46;;;;;;;13.77;10.25;;;;;;;16.12;100.00;92657.09;2102982;28;20016;-80
2022/06/22 02:57:00;;;;;;;18.33;10.77;;;;;;;16.08;100.00;92654.59;2092407;28;20025;-79
2022/06/22 02:58:30;;;;;;;14.70;10.20;;;;;;;16.10;100.00;92651.41;2093134;28;20026;-78
2022/06/22 02:59:51;;;;;;;12.35;10.60;;;;;;;15.96;100.00;92655.56;2111878;28;20023;-79
2022/06/22 03:01:12;;;;;;;12.77;10.20;;;;;;;15.86;100.00;92651.47;2105148;28;20024;-81
2022/06/22 03:02:32;;;;;;;12.57;10.30;;;;;;;15.86;100.00;92652.22;2097533;28;20035;-81
2022/06/22 03:04:02;;;;;;;13.02;9.95;;;;;;;15.83;100.00;92650.41;2105745;28;20032;-79
2022/06/22 03:05:23;;;;;;;13.57;10.40;;;;;;;16.01;100.00;92652.22;2094453;28;20032;-81
2022/06/22 03:06:31;;;;;;;11.90;10.32;;;;;;;15.99;100.00;92643.13;2105853;28;20103;-80
2022/06/22 03:07:38;;;;;;;11.95;9.77;;;;;;;15.90;100.00;92641.25;2090004;28;20017;-79
2022/06/22 03:09:02;;;;;;;10.55;9.50;;;;;;;15.96;100.00;92646.75;2095794;28;20052;-80
2022/06/22 03:10:36;;;;;;;14.00;10.77;;;;;;;15.94;100.00;92647.22;2111272;28;20024;-79
2022/06/22 03:11:52;;;;;;;12.48;10.35;;;;;;;15.94;100.00;92652.59;2106248;28;20090;-79
2022/06/22 03:13:18;;;;;;;12.68;10.93;;;;;;;15.85;100.00;92650.72;2105705;28;20027;-80
2022/06/22 03:14:48;;;;;;;12.00;9.52;;;;;;;15.85;100.00;92649.97;2097023;28;20047;-80
2022/06/22 03:16:07;;;;;;;12.10;10.75;;;;;;;15.83;100.00;92655.06;2095150;28;20484;-79
2022/06/22 03:17:17;;;;;;;11.13;10.07;;;;;;;15.90;100.00;92659.38;2110593;28;20786;-79
2022/06/22 03:18:26;;;;;;;11.20;10.13;;;;;;;15.94;100.00;92658.00;2093153;28;20086;-80
2022/06/22 03:19:51;;;;;;;11.93;10.75;;;;;;;15.99;100.00;92651.22;2094131;28;20815;-79
2022/06/22 03:21:21;;;;;;;17.38;10.80;;;;;;;15.96;100.00;92652.88;2096045;28;20028;-80
2022/06/22 03:22:29;;;;;;;11.65;10.50;;;;;;;15.99;100.00;92662.75;2093360;28;20023;-80
2022/06/22 03:23:45;;;;;;;12.77;10.85;;;;;;;15.99;100.00;92657.34;2099995;28;20411;-80
2022/06/22 03:24:54;;;;;;;11.68;10.48;;;;;;;16.00;100.00;92650.75;2106921;28;20104;-80
2022/06/22 03:26:25;;;;;;;10.52;9.50;;;;;;;16.03;100.00;92660.63;2108684;28;20032;-80
2022/06/22 03:27:48;;;;;;;11.48;10.27;;;;;;;15.99;100.00;92660.06;2102991;28;20024;-80
2022/06/22 03:29:22;;;;;;;17.27;10.30;;;;;;;16.04;100.00;92656.72;2099094;28;20028;-81
2022/06/22 03:30:56;;;;;;;14.32;10.50;;;;;;;16.01;100.00;92665.72;2098369;28;20032;-81
2022/06/22 03:32:16;;;;;;;12.70;10.05;;;;;;;16.02;100.00;92667.22;2100847;28;20027;-79
2022/06/22 03:33:26;;;;;;;13.48;10.32;;;;;;;16.08;100.00;92661.94;2092003;28;20029;-80
2022/06/22 03:34:57;;;;;;;11.70;10.60;;;;;;;16.09;100.00;92663.41;2106282;28;20039;-80
2022/06/22 03:36:23;;;;;;;13.48;10.65;;;;;;;16.09;100.00;92661.47;2106702;28;20039;-79
2022/06/22 03:37:44;;;;;;;13.95;10.60;;;;;;;16.13;100.00;92661.28;2098052;28;20062;-80
2022/06/22 03:39:09;;;;;;;13.88;11.20;;;;;;;16.11;100.00;92669.84;2108834;28;20808;-81
2022/06/22 03:40:42;;;;;;;15.30;11.73;;;;;;;16.21;100.00;92665.13;2112268;28;20116;-80
2022/06/22 03:42:00;;;;;;;12.50;10.75;;;;;;;16.23;100.00;92672.75;2115007;28;20020;-80
2022/06/22 03:43:28;;;;;;;13.73;10.23;;;;;;;16.30;100.00;92680.47;2111659;28;20016;-79
2022/06/22 03:45:00;;;;;;;11.20;10.07;;;;;;;16.31;100.00;92676.56;2113181;28;20028;-80
2022/06/22 03:46:09;;;;;;;14.30;10.52;;;;;;;16.28;100.00;92674.78;2110939;28;20141;-79
2022/06/22 03:47:31;;;;;;;14.13;10.10;;;;;;;16.32;100.00;92680.75;2100780;28;20039;-80
2022/06/22 03:49:01;;;;;;;12.55;10.23;;;;;;;16.32;100.00;92686.88;2108426;28;20493;-79
2022/06/22 03:50:15;;;;;;;13.25;10.25;;;;;;;16.31;100.00;92690.78;2106483;28;20089;-80
2022/06/22 03:51:28;;;;;;;14.88;10.23;;;;;;;16.40;100.00;92684.56;2100428;28;20458;-79
2022/06/22 03:52:58;;;;;;;12.82;11.52;;;;;;;16.35;100.00;92687.94;2115401;28;20540;-80
2022/06/22 03:54:37;;;;;;;11.73;10.13;;;;;;;16.32;100.00;92691.53;2099584;28;20523;-80
2022/06/22 03:56:04;;;;;;;12.48;10.38;;;;;;;16.32;100.00;92688.84;2096228;28;20040;-78
2022/06/22 03:57:27;;;;;;;11.40;10.27;;;;;;;16.33;100.00;92683.00;2091744;28;20033;-80
2022/06/22 03:58:50;;;;;;;16.33;10.43;;;;;;;16.31;100.00;92680.00;2098734;28;20031;-79
2022/06/22 03:59:53;;;;;;;14.35;10.45;;;;;;;16.32;100.00;92678.06;2085867;28;20457;-80
2022/06/22 04:01:15;;;;;;;12.45;10.07;;;;;;;16.33;100.00;92677.59;2086569;28;20037;-80
2022/06/22 04:02:36;;;;;;;12.02;10.55;;;;;;;16.32;100.00;92673.41;2087327;28;20024;-79
2022/06/22 04:03:58;;;;;;;12.60;11.40;;;;;;;16.27;100.00;92673.31;2089805;28;20071;-79
2022/06/22 04:05:20;;;;;;;13.80;11.13;;;;;;;16.23;100.00;92675.44;2094367;28;20020;-80
2022/06/22 04:06:46;;;;;;;16.85;10.80;;;;;;;16.31;100.00;92679.25;2103944;28;20046;-79
2022/06/22 04:08:28;;;;;;;11.88;10.52;;;;;;;16.33;100.00;92679.53;2084145;28;20025;-79
2022/06/22 04:09:31;;;;;;;13.43;10.50;;;;;;;16.33;100.00;92677.59;2105678;27;20019;-79
2022/06/22 04:10:46;;;;;;;11.48;10.38;;;;;;;16.36;100.00;92673.97;2102201;28;20106;-80
2022/06/22 04:12:14;;;;;;;14.27;10.43;;;;;;;16.39;100.00;92679.66;2094481;28;20082;-79
2022/06/22 04:13:49;;;;;;;11.57;10.25;;;;;;;16.41;100.00;92683.38;2105570;28;20024;-79
2022/06/22 04:15:21;;;;;;;15.77;10.90;;;;;;;16.42;100.00;92689.50;2111980;27;20024;-79
2022/06/22 04:16:38;;;;;;;12.50;10.48;;;;;;;16.44;100.00;92690.53;2109818;28;20121;-79
2022/06/22 04:18:00;;;;;;;11.50;10.35;;;;;;;16.40;100.00;92689.22;2110573;28;20024;-80
2022/06/22 04:19:19;;;;;;;12.43;10.35;;;;;;;16.49;100.00;92706.09;2099992;28;20025;-79
2022/06/22 04:21:13;;;;;;;14.13;10.77;;;;;;;16.55;100.00;92700.78;2108956;28;20066;-79
2022/06/22 04:22:22;;;;;;;10.93;9.80;;;;;;;16.64;100.00;92703.41;2104962;28;20028;-80
2022/06/22 04:23:46;;;;;;;10.95;9.85;;;;;;;16.60;100.00;92713.66;2104217;28;20070;-78
2022/06/22 04:25:35;;;;;;;11.65;10.40;;;;;;;16.63;100.00;92729.63;2101724;27;20110;-80
2022/06/22 04:27:06;;;;;;;11.18;9.93;;;;;;;16.64;100.00;92730.41;2113928;27;20102;-80
2022/06/22 04:28:31;;;;;;;14.18;10.43;;;;;;;16.70;100.00;92741.28;2113652;27;20036;-80
2022/06/22 04:29:45;;;;;;;11.80;9.52;;;;;;;16.75;100.00;92741.41;2099635;28;20691;-79
2022/06/22 04:31:10;;;;;;;11.40;9.10;;;;;;;16.88;100.00;92745.78;2107507;27;20118;-79
2022/06/22 04:32:42;;;;;;;12.13;9.05;;;;;;;17.05;100.00;92750.28;2109406;28;20023;-80
2022/06/22 04:34:11;;;;;;;13.73;9.45;;;;;;;17.26;100.00;92740.31;2098731;28;20028;-80
2022/06/22 04:36:00;;;;;;;15.52;9.20;;;;;;;17.35;100.00;92740.19;2100765;28;20578;-80
2022/06/22 04:37:22;;;;;;;12.82;8.38;;;;;;;17.57;100.00;92734.38;2104951;28;20042;-80
2022/06/22 04:38:58;;;;;;;12.88;8.10;;;;;;;17.71;100.00;92719.34;2109810;28;20030;-79
2022/06/22 04:40:28;;;;;;;16.23;8.30;;;;;;;17.82;100.00;92719.53;2115722;27;20511;-80
2022/06/22 04:41:33;;;;;;;11.63;8.10;;;;;;;17.78;100.00;92720.91;2101648;28;20777;-80
2022/06/22 04:42:34;;;;;;;12.32;7.97;;;;;;;17.90;100.00;92713.69;2097291;28;20028;-79
2022/06/22 04:44:01;;;;;;;13.63;8.07;;;;;;;17.73;100.00;92713.44;2099680;28;20145;-79
2022/06/22 04:45:42;;;;;;;16.17;8.68;;;;;;;17.82;100.00;92718.75;2114699;27;20026;-80
2022/06/22 04:46:48;;;;;;;14.27;8.35;;;;;;;17.78;100.00;92726.31;2106479;28;20056;-80
2022/06/22 04:47:48;;;;;;;11.13;8.38;;;;;;;17.62;100.00;92731.00;2089729;28;20472;-79
2022/06/22 04:48:56;;;;;;;16.67;8.85;;;;;;;17.51;100.00;92736.25;2105449;28;20908;-80
2022/06/22 04:50:10;;;;;;;16.25;8.57;;;;;;;17.43;100.00;92739.78;2106220;28;20046;-79
2022/06/22 04:51:37;;;;;;;14.07;7.97;;;;;;;17.39;100.00;92740.00;2105198;28;20603;-80
2022/06/22 04:52:59;;;;;;;13.07;8.27;;;;;;;17.32;100.00;92743.09;2104268;28;20016;-80
2022/06/22 04:54:26;;;;;;;12.05;8.02;;;;;;;17.21;100.00;92742.91;2107907;28;20023;-80
2022/06/22 04:55:47;;;;;;;9.82;6.95;;;;;;;17.08;100.00;92735.84;2118841;27;20031;-80
2022/06/22 04:57:21;;;;;;;11.00;7.18;;;;;;;17.05;100.00;92742.16;2101617;28;20060;-80
2022/06/22 04:58:45;;;;;;;11.95;6.88;;;;;;;16.95;100.00;92735.38;2096174;28;20028;-81
2022/06/22 05:00:28;;;;;;;11.85;7.15;;;;;;;16.95;100.00;92731.94;2111819;27;20039;-80
2022/06/22 05:01:46;;;;;;;13.35;6.82;;;;;;;16.86;100.00;92735.47;2121029;27;20054;-80
2022/06/22 05:03:15;;;;;;;11.40;6.88;;;;;;;16.84;100.00;92732.47;2109080;28;20517;-81
2022/06/22 05:04:39;;;;;;;14.77;6.97;;;;;;;16.77;100.00;92722.03;2105001;28;20790;-80
2022/06/22 05:06:06;;;;;;;19.48;6.88;;;;;;;16.70;100.00;92714.31;2102663;28;20032;-79
2022/06/22 05:07:16;;;;;;;20.52;7.47;;;;;;;16.67;100.00;92721.34;2092283;28;20021;-80
2022/06/22 05:08:47;;;;;;;13.50;6.17;;;;;;;16.65;100.00;92718.38;2110617;27;20030;-80
2022/06/22 05:10:42;;;;;;;12.05;6.95;;;;;;;16.68;100.00;92728.25;2107882;28;20545;-81
2022/06/22 05:12:08;;;;;;;11.90;5.85;;;;;;;16.65;100.00;92720.34;2115160;27;20058;-80
2022/06/22 05:13:28;;;;;;;15.65;5.97;;;;;;;16.62;100.00;92722.00;2110153;28;20447;-79
2022/06/22 05:14:51;;;;;;;13.70;5.72;;;;;;;16.67;100.00;92715.22;2108781;28;20119;-80
2022/06/22 05:16:15;;;;;;;14.55;5.50;;;;;;;16.69;100.00;92710.13;2114173;27;20069;-79
2022/06/22 05:17:36;;;;;;;13.38;4.88;;;;;;;16.69;100.00;92713.56;2107275;28;20037;-80
2022/06/22 05:18:43;;;;;;;12.80;5.53;;;;;;;16.67;100.00;92715.97;2099947;28;20027;-80
2022/06/22 05:19:50;;;;;;;15.63;5.55;;;;;;;16.76;100.00;92721.28;2095716;28;20031;-80
2022/06/22 05:21:05;;;;;;;17.30;6.03;;;;;;;16.78;100.00;92708.09;2088758;28;20534;-81
2022/06/22 05:22:25;;;;;;;14.02;5.65;;;;;;;16.76;100.00;92709.75;2097561;28;20035;-79
2022/06/22 05:23:45;;;;;;;18.27;6.05;;;;;;;16.76;100.00;92704.38;2117190;27;20019;-80
2022/06/22 05:25:09;;;;;;;15.45;5.72;;;;;;;16.72;100.00;92711.88;2105024;28;20053;-81
2022/06/22 05:26:11;;;;;;;19.50;5.85;;;;;;;16.70;100.00;92709.66;2099960;28;20019;-80
2022/06/22 05:27:20;;;;;;;17.88;6.10;;;;;;;16.71;100.00;92710.38;2095326;28;20032;-80
2022/06/22 05:28:35;;;;;;;22.13;6.18;;;;;;;16.67;100.00;92707.88;2088457;28;20058;-81
2022/06/22 05:30:02;;;;;;;12.57;5.97;;;;;;;16.79;100.00;92711.53;2089483;28;20052;-80
2022/06/22 05:31:29;;;;;;;11.80;6.22;;;;;;;16.78;100.00;92705.41;2116139;27;20050;-79
2022/06/22 05:32:36;;;;;;;19.10;7.30;;;;;;;16.77;100.00;92711.25;2113430;28;20030;-80
2022/06/22 05:33:39;;;;;;;14.60;6.60;;;;;;;16.80;100.00;92699.53;2104334;27;20669;-80
2022/06/22 05:35:07;;;;;;;16.13;6.03;;;;;;;16.72;100.00;92693.75;2114155;27;20137;-80
2022/06/22 05:36:31;;;;;;;18.42;6.90;;;;;;;16.65;100.00;92696.81;2112946;28;20120;-82
2022/06/22 05:37:54;;;;;;;16.48;6.00;;;;;;;16.69;100.00;92693.94;2099819;28;20729;-80
2022/06/22 05:38:59;;;;;;;17.45;6.35;;;;;;;16.76;100.00;92688.91;2101614;28;20040;-80
2022/06/22 05:40:05;;;;;;;20.50;7.00;;;;;;;16.76;100.00;92683.50;2109359;27;20024;-80
2022/06/22 05:41:17;;;;;;;16.25;6.93;;;;;;;16.75;100.00;92692.81;2097159;28;20084;-80
2022/06/22 05:42:43;;;;;;;19.83;7.15;;;;;;;16.72;100.00;92693.75;2110873;27;20055;-80
2022/06/22 05:44:13;;;;;;;13.55;6.60;;;;;;;16.77;100.00;92695.06;2098540;28;20127;-81
2022/06/22 05:45:38;;;;;;;13.70;6.25;;;;;;;16.72;100.00;92692.97;2103902;28;20044;-80
2022/06/22 05:47:02;;;;;;;17.73;6.75;;;;;;;16.80;100.00;92699.53;2103648;28;20116;-80
2022/06/22 05:48:18;;;;;;;10.18;6.35;;;;;;;16.78;100.00;92697.31;2109009;28;20023;-79
2022/06/22 05:49:59;;;;;;;17.38;7.45;;;;;;;16.79;100.00;92693.38;2099906;28;20110;-80
2022/06/22 05:51:19;;;;;;;12.57;6.00;;;;;;;16.84;100.00;92705.47;2110410;28;20027;-80
2022/06/22 05:52:58;;;;;;;17.83;6.65;;;;;;;16.83;100.00;92704.00;2105503;28;20019;-80
2022/06/22 05:54:17;;;;;;;12.95;6.25;;;;;;;16.83;100.00;92698.59;2106944;28;20034;-80
2022/06/22 05:55:56;;;;;;;12.82;5.90;;;;;;;16.86;100.00;92694.97;2114312;27;20031;-80
2022/06/22 05:57:15;;;;;;;15.45;6.85;;;;;;;16.82;100.00;92705.22;2101984;28;20520;-79
2022/06/22 05:58:57;;;;;;;13.63;5.85;;;;;;;16.83;100.00;92693.94;2112229;27;20522;-80
2022/06/22 06:00:22;;;;;;;13.40;5.85;;;;;;;16.88;100.00;92689.84;2100984;28;20538;-81
2022/06/22 06:01:34;;;;;;;15.05;6.07;;;;;;;16.83;100.00;92698.59;2094135;28;20408;-80
2022/06/22 06:03:10;;;;;;;13.45;5.47;;;;;;;16.91;100.00;92688.19;2109422;27;20467;-80
2022/06/22 06:04:43;;;;;;;15.75;6.10;;;;;;;16.85;100.00;92699.59;2108214;28;20095;-81
2022/06/22 06:06:19;;;;;;;15.55;5.57;;;;;;;16.84;100.00;92698.13;2120767;27;20826;-80
2022/06/22 06:08:02;;;;;;;15.35;5.70;;;;;;;16.89;100.00;92696.72;2118220;27;20015;-81
2022/06/22 06:09:25;;;;;;;19.70;5.40;;;;;;;16.96;100.00;92701.75;2116307;27;20108;-80
2022/06/22 06:10:46;;;;;;;14.40;5.32;;;;;;;16.99;100.00;92700.84;2111886;28;20035;-80
2022/06/22 06:12:22;;;;;;;13.40;5.72;;;;;;;16.91;100.00;92694.31;2112107;28;20090;-80
2022/06/22 06:14:02;;;;;;;15.60;5.90;;;;;;;16.97;100.00;92700.53;2116376;27;20097;-81
2022/06/22 06:15:14;;;;;;;13.70;5.45;;;;;;;17.03;100.00;92701.41;2096410;28;20098;-81
2022/06/22 06:16:24;;;;;;;19.40;5.70;;;;;;;17.04;100.00;92696.75;2097598;28;20025;-81
2022/06/22 06:17:47;;;;;;;13.80;5.72;;;;;;;16.99;100.00;92700.84;2096197;28;20028;-81
2022/06/22 06:19:08;;;;;;;17.02;6.03;;;;;;;16.97;100.00;92697.84;2090931;28;20099;-80
2022/06/22 06:20:34;;;;;;;17.10;6.43;;;;;;;16.89;100.00;92694.03;2093216;28;20025;-80
2022/06/22 06:21:58;;;;;;;17.23;6.38;;;;;;;16.91;100.00;92696.28;2102625;28;20427;-80
2022/06/22 06:23:27;;;;;;;17.83;6.60;;;;;;;16.89;100.00;92691.31;2104082;28;20067;-79
2022/06/22 06:28:11;;;;;;;17.73;7.03;;;;;;;16.94;100.00;92693.38;2089955;28;20051;-79
2022/06/22 06:29:58;;;;;;;12.75;7.22;;;;;;;17.00;100.00;92691.53;2096330;28;20384;-80
2022/06/22 06:31:31;;;;;;;22.73;7.18;;;;;;;17.11;100.00;92699.03;2096110;28;20036;-80